createdAt,value
2022-09-06T01:44:26.768Z,2.58
2022-09-06T01:47:01.882Z,2.55
2022-09-06T01:49:44.898Z,2.80
2022-09-06T01:52:21.576Z,3.05
2022-09-06T01:55:07.160Z,2.75
2022-09-06T08:22:26.722Z,3.95
2022-09-06T08:24:56.283Z,3.55
2022-09-06T08:27:41.718Z,3.17
2022-09-06T08:30:26.799Z,3.53
2022-09-06T08:33:01.918Z,3.15
2022-09-06T08:35:38.041Z,3.45
2022-09-06T08:38:15.137Z,2.78
2022-09-06T08:40:46.061Z,3.10
2022-09-06T09:53:11.149Z,2.20
2022-09-06T09:55:39.958Z,2.38
2022-09-06T09:58:17.742Z,2.33
2022-09-06T10:00:45.454Z,2.92
2022-09-06T10:03:14.797Z,2.40
2022-09-06T10:06:02.054Z,2.75
2022-09-06T10:08:34.914Z,2.33
2022-09-06T10:11:02.616Z,2.90
2022-09-06T10:13:31.297Z,2.40
2022-09-06T10:16:03.113Z,2.35
2022-09-06T10:18:33.013Z,2.90
2022-09-06T10:21:02.885Z,3.25
2022-09-06T10:26:33.567Z,2.53
2022-09-06T10:29:06.865Z,3.00
2022-09-06T10:31:50.072Z,2.25
2022-09-06T10:34:59.904Z,2.80
2022-09-06T10:37:42.626Z,2.78
2022-09-06T10:40:13.285Z,2.60
2022-09-06T10:42:46.699Z,2.60
2022-09-06T10:45:28.328Z,3.33
2022-09-06T11:39:13.883Z,2.63
2022-09-06T11:41:49.599Z,2.45
2022-09-06T11:47:09.321Z,2.40
2022-09-06T11:49:41.317Z,2.08
2022-09-06T11:52:46.233Z,1.92
2022-09-06T12:02:23.994Z,2.03
2022-09-06T12:05:35.534Z,1.80
2022-09-06T12:11:59.031Z,1.90
2022-09-06T12:15:03.002Z,1.50
2022-09-06T12:17:54.311Z,1.70
2022-09-06T12:21:26.299Z,2.03
2022-09-06T13:02:13.721Z,1.60
2022-09-06T13:04:45.416Z,2.03
2022-09-06T13:10:50.796Z,2.30
2022-09-06T13:16:07.652Z,1.92
2022-09-06T13:18:39.637Z,2.20
2022-09-06T13:49:59.059Z,2.25
2022-09-06T13:52:28.175Z,1.92
2022-09-06T13:57:40.836Z,1.75
2022-09-06T14:00:12.825Z,1.60
2022-09-06T14:03:10.664Z,2.03
2022-09-06T14:05:40.005Z,2.47
2022-09-06T14:08:21.180Z,2.25
2022-09-06T14:10:49.799Z,2.25
2022-09-06T14:13:18.540Z,1.98
2022-09-06T14:15:47.365Z,2.20
2022-09-06T14:18:16.357Z,1.88
2022-09-06T14:20:53.363Z,1.90
2022-09-06T14:23:23.723Z,2.00
2022-09-06T14:25:57.264Z,1.75
2022-09-06T14:28:25.990Z,1.77
2022-09-06T14:30:54.305Z,2.28
2022-09-06T14:33:23.403Z,1.90
2022-09-06T14:35:52.669Z,1.70
2022-09-06T14:38:22.268Z,1.52
2022-09-06T14:40:50.553Z,1.70
2022-09-06T14:45:57.496Z,1.40
2022-09-06T15:37:55.256Z,1.45
2022-09-06T15:40:27.060Z,1.50
2022-09-06T15:42:55.031Z,2.03
2022-09-06T15:48:04.614Z,1.80
2022-09-06T15:50:50.315Z,1.95
2022-09-06T15:53:20.511Z,1.67
2022-09-06T15:55:56.154Z,1.63
2022-09-06T15:58:23.956Z,1.55
2022-09-06T16:01:02.184Z,1.80
2022-09-06T16:03:29.852Z,2.25
2022-09-06T16:08:56.298Z,1.70
2022-09-06T16:11:23.794Z,1.25
2022-09-06T16:13:51.598Z,2.40
2022-09-06T16:16:19.998Z,1.90
2022-09-06T16:18:48.029Z,1.90
2022-09-06T16:21:17.951Z,2.42
2022-09-06T16:23:50.350Z,1.70
2022-09-06T16:26:21.677Z,1.88
2022-09-06T16:28:50.755Z,1.63
2022-09-06T16:31:19.392Z,1.85
2022-09-06T16:33:48.737Z,1.80
2022-09-06T16:36:16.929Z,1.98
2022-09-06T16:38:44.807Z,2.83
2022-09-06T16:41:15.499Z,1.75
2022-09-06T16:43:44.726Z,2.38
2022-09-06T16:46:13.355Z,1.60
2022-09-06T16:48:41.556Z,2.40
2022-09-06T16:51:11.047Z,1.83
2022-09-06T16:53:41.065Z,2.10
2022-09-06T16:56:09.367Z,1.88
2022-09-06T16:58:36.889Z,1.80
2022-09-06T17:01:07.273Z,1.88
2022-09-06T17:03:36.187Z,2.22
2022-09-06T17:06:04.455Z,1.75
2022-09-06T17:08:32.867Z,1.73
2022-09-06T17:11:02.143Z,1.77
2022-09-06T17:13:30.554Z,1.67
2022-09-06T17:16:19.988Z,2.20
2022-09-06T17:18:53.687Z,1.73
2022-09-06T17:21:22.311Z,2.30
2022-09-06T17:23:50.467Z,2.17
2022-09-06T17:26:19.576Z,2.08
2022-09-06T17:28:47.094Z,2.58
2022-09-06T17:31:15.720Z,1.83
2022-09-06T17:33:43.292Z,1.95
2022-09-06T17:36:14.486Z,2.25
2022-09-06T17:38:43.131Z,1.90
2022-09-06T17:41:19.968Z,2.17
2022-09-06T17:43:48.596Z,1.90
2022-09-06T17:46:16.148Z,2.22
2022-09-06T17:48:44.070Z,1.67
2022-09-06T17:51:12.996Z,1.83
2022-09-06T17:53:41.113Z,1.83
2022-09-06T17:56:10.391Z,1.80
2022-09-06T17:58:38.962Z,2.25
2022-09-06T18:20:18.186Z,2.13
2022-09-06T18:22:45.739Z,2.30
2022-09-06T18:25:13.893Z,2.33
2022-09-06T20:14:21.266Z,3.92
2022-09-06T20:16:51.800Z,3.47
2022-09-06T20:19:19.884Z,4.18
2022-09-06T20:21:47.443Z,3.78
2022-09-06T20:24:15.045Z,3.88
2022-09-06T20:54:27.168Z,3.90
2022-09-06T20:57:03.440Z,3.53
2022-09-06T20:59:45.688Z,3.92
2022-09-06T21:02:16.260Z,4.10
2022-09-06T21:04:49.545Z,4.00
2022-09-06T21:07:17.705Z,3.80
2022-09-06T21:09:47.130Z,3.63
2022-09-06T21:12:15.203Z,3.92
2022-09-06T21:14:43.621Z,4.13
2022-09-06T21:17:11.593Z,3.45
2022-09-06T21:19:40.327Z,3.92
2022-09-06T21:22:10.683Z,3.58
2022-09-06T21:24:38.822Z,3.15
2022-09-06T21:27:12.227Z,3.15
2022-09-06T21:29:40.146Z,3.67
2022-09-06T21:32:08.017Z,3.60
2022-09-06T21:34:36.239Z,3.63
2022-09-06T21:37:04.163Z,3.95
2022-09-06T21:39:34.226Z,4.22
2022-09-06T21:42:02.011Z,3.50
2022-09-06T21:44:31.373Z,3.67
2022-09-06T21:47:01.385Z,3.50
2022-09-06T21:49:29.190Z,4.20
2022-09-06T21:51:57.492Z,3.33
2022-09-06T21:54:25.444Z,3.47
2022-09-06T21:56:53.598Z,3.20
2022-09-06T21:59:21.886Z,3.85
2022-09-06T22:01:53.138Z,3.58
2022-09-06T22:04:21.547Z,3.60
2022-09-06T22:06:49.660Z,4.05
2022-09-06T22:09:17.429Z,3.15
2022-09-06T22:11:46.053Z,3.55
2022-09-06T22:14:15.897Z,3.97
2022-09-06T22:16:44.125Z,2.90
2022-09-06T22:19:13.608Z,3.38
2022-09-06T22:21:41.507Z,3.17
2022-09-06T22:24:14.402Z,3.08
2022-09-06T22:26:42.705Z,2.88
2022-09-06T22:29:13.725Z,3.13
2022-09-06T22:31:42.111Z,2.63
2022-09-06T22:34:11.172Z,2.95
2022-09-06T22:36:40.991Z,2.72
2022-09-06T22:39:09.777Z,2.70
2022-09-06T22:41:38.121Z,2.83
2022-09-06T22:44:07.412Z,3.08
2022-09-06T22:46:35.863Z,2.90
2022-09-06T22:49:05.590Z,3.33
2022-09-06T22:51:33.847Z,3.25
2022-09-06T22:54:03.424Z,3.10
2022-09-06T22:56:31.626Z,3.00
2022-09-06T22:59:00.364Z,2.80
2022-09-06T23:01:28.649Z,2.88
2022-09-06T23:03:57.980Z,2.78
2022-09-06T23:06:26.280Z,3.08
2022-09-06T23:08:54.389Z,2.55
2022-09-06T23:11:24.059Z,2.58
2022-09-06T23:13:56.971Z,2.35
2022-09-06T23:16:26.199Z,2.97
2022-09-06T23:18:54.730Z,2.78
2022-09-06T23:21:24.475Z,2.42
2022-09-06T23:23:56.385Z,2.55
2022-09-06T23:26:28.910Z,2.22
2022-09-06T23:28:57.462Z,2.40
2022-09-06T23:31:28.023Z,2.22
2022-09-06T23:33:57.274Z,2.42
2022-09-06T23:36:25.679Z,2.88
2022-09-06T23:38:53.564Z,2.05
2022-09-06T23:41:21.753Z,2.13
2022-09-06T23:43:51.404Z,2.05
2022-09-06T23:46:19.435Z,2.88
2022-09-06T23:48:47.558Z,1.90
2022-09-06T23:51:15.520Z,1.75
2022-09-06T23:53:43.529Z,2.25
2022-09-06T23:56:11.410Z,1.80
2022-09-06T23:58:39.764Z,1.90
